Crest Hill, IL (60403)

5:28 PM CDT on August 25, 2016 (GMT -0500)
Warwick Subdivision, Joliet, IL | | Change Station

Elev 591 ft 41.55 °N, 88.15 °W | Updated 2 minutes ago

Overcast
Overcast
80.4 °F
Feels Like 83 °F
N
4.0
Wind Variable Wind from West
Gusts 6.0 mph

Today
High -- | Low -- °F
--% Chance of Precip.
Yesterday
High -- | Low -- °F
Precip. -- in
Pressure 30.03 in
Visibility 10.0 miles
Clouds Mostly Cloudy 7000 ft
Overcast 11000 ft
Heat Index 83 °F
Dew Point 69 °F
Humidity 68%
Rainfall in
Snow Depth Not available.
6:12 AM 7:36 PM
Last Quarter, 41% visible
METAR KJOT 252215Z AUTO 00000KT 10SM BKN070 OVC110 27/20 A3003 RMK AO2 T02720203
Pressure 30.03 in
Visibility 10.0 miles
Clouds Mostly Cloudy 7000 ft
Overcast 11000 ft
Heat Index 83 °F
Dew Point 69 °F
Humidity 68%
Rainfall in
Snow Depth Not available.
6:12 AM 7:36 PM
Last Quarter, 41% visible
METAR KJOT 252215Z AUTO 00000KT 10SM BKN070 OVC110 27/20 A3003 RMK AO2 T02720203
A tropical disturbance pushing toward the Bahamas, is expected to develop into a tropical depression or storm, and will likely target Florida and the Gulf Coast this weekend into next week.

Right now, the disturbance remains a broad area of low pressure pushing through the Dominican Republic and Haiti, headed toward the southeast Bahamas. Rainfall totals over 3 inches (with locally higher amounts) are expected in HispaƱiola, particularly over elevated terrain.

10-Day Weather Forecast

Almanac

Astronomy

Aug. 25, 2016 Rise Set
Actual Time
Civil Twilight
Nautical Twilight
Astronomical Twilight
Moon
Length of Visible Light
Length of Day
Tomorrow will be .
, % of the Moon is Illuminated

Today's Extremes

State Highs State Lows

Community

WunderPhotos

Upload Photos

1,934,952 photos uploaded!

WunderBlog® & News

Nearby

Air Quality

  Air Quality AQ Index Pollutant
Not available.

Snow Depth

Station Depth Elevation

Earthquake Activity

City Distance Mag. Time & Date
Minimum magnitude displayed is 2.5.

Coastal Water Temperatures

Place Temperature

Stations

Nearby Weather Stations

Station Location Temp. Windchill Dew Point Humidity Wind Precip. Elev Updated Type
                   

Watches & Warnings

There are currently no watches in effect.